Time;durP1;ratioP1;P1;durP2;ratioP2;P2;SDS_P1;SDS_P2;PMS_P1;PMS_P2;Temp;Humidity;BMP_temperature;BMP_pressure;BME280_temperature;BME280_humidity;BME280_pressure;Samples;Min_cycle;Max_cycle;Signal;HPM_P1;HPM_P2
2022/05/14 00:01:02;;;;;;;;;2.00;2.00;;;;;19.53;70.60;101960.06;4963164;28;47228;-73
2022/05/14 00:03:29;;;;;;;;;4.00;4.00;;;;;19.45;70.96;101952.09;4963872;28;45441;-73
2022/05/14 00:05:58;;;;;;;;;5.33;2.67;;;;;19.39;71.29;101952.16;4977167;28;45304;-73
2022/05/14 00:08:25;;;;;;;;;3.33;2.00;;;;;19.35;71.67;101951.28;4974086;28;45433;-73
2022/05/14 00:13:35;;;;;;;;;2.00;2.00;;;;;19.29;71.81;101954.00;4977463;28;45455;-73
2022/05/14 00:16:01;;;;;;;;;1.67;1.33;;;;;19.26;72.54;101961.16;4977133;28;45529;-73
2022/05/14 00:18:27;;;;;;;;;3.00;3.00;;;;;19.19;72.58;101952.28;4966094;28;45557;-73
2022/05/14 00:20:52;;;;;;;;;5.00;3.00;;;;;19.18;72.81;101966.56;4956228;28;46207;-74
2022/05/14 00:23:18;;;;;;;;;3.00;2.00;;;;;19.10;73.24;101955.91;4957267;28;45377;-73
2022/05/14 00:25:44;;;;;;;;;3.67;2.00;;;;;19.06;73.34;101954.13;4961422;28;45365;-73
2022/05/14 00:28:10;;;;;;;;;4.00;3.00;;;;;19.01;73.55;101957.72;4976749;28;45257;-73
2022/05/14 00:30:37;;;;;;;;;8.00;2.33;;;;;19.00;74.00;101961.31;4957238;28;45320;-73
2022/05/14 00:33:02;;;;;;;;;3.00;3.00;;;;;18.95;73.95;101961.34;4958338;28;45426;-74
2022/05/14 00:35:28;;;;;;;;;2.00;2.00;;;;;18.92;74.32;101955.13;4977118;28;45509;-73
2022/05/14 00:37:53;;;;;;;;;3.67;2.67;;;;;18.87;74.39;101955.16;4976969;28;45345;-73
2022/05/14 00:40:20;;;;;;;;;5.33;3.00;;;;;18.84;74.92;101953.38;4958381;28;46131;-74
2022/05/14 00:42:46;;;;;;;;;2.00;2.00;;;;;18.81;74.89;101944.50;4968460;28;45789;-73
2022/05/14 00:45:13;;;;;;;;;5.67;3.00;;;;;18.77;75.06;101946.28;4976399;28;45435;-73
2022/05/14 00:47:41;;;;;;;;;4.00;3.00;;;;;18.75;75.44;101945.41;4976463;28;45551;-73
2022/05/14 00:50:17;;;;;;;;;2.33;2.33;;;;;18.73;75.26;101952.53;4958206;28;48055;-74
2022/05/14 00:52:44;;;;;;;;;2.00;2.00;;;;;18.69;75.53;101942.75;4957282;28;45232;-74
2022/05/14 00:55:10;;;;;;;;;6.00;3.00;;;;;18.68;76.05;101940.06;4955901;28;45522;-73
2022/05/14 00:57:38;;;;;;;;;4.00;2.33;;;;;18.63;75.87;101931.16;4974531;28;45507;-73
2022/05/14 01:00:08;;;;;;;;;2.33;2.00;;;;;18.62;76.32;101940.97;4976316;28;46436;-73
2022/05/14 01:02:33;;;;;;;;;4.00;3.00;;;;;18.56;76.22;101933.84;4979743;28;45294;-74
2022/05/14 01:04:59;;;;;;;;;2.00;2.00;;;;;18.58;76.40;101934.72;4977699;28;51181;-73
2022/05/14 01:07:24;;;;;;;;;3.00;3.00;;;;;18.59;76.63;101927.63;4969333;28;51802;-73
2022/05/14 01:09:52;;;;;;;;;4.00;2.00;;;;;18.59;77.05;101941.00;4959006;28;46120;-73
2022/05/14 01:12:20;;;;;;;;;3.00;2.00;;;;;18.55;76.75;101940.09;4959954;28;45401;-74
2022/05/14 01:14:46;;;;;;;;;4.33;3.00;;;;;18.54;77.61;101937.44;4958998;28;45330;-74
2022/05/14 01:17:11;;;;;;;;;4.67;2.00;;;;;18.49;77.62;101929.44;4974055;28;45238;-73
2022/05/14 01:19:37;;;;;;;;;4.33;2.00;;;;;18.49;78.04;101933.91;4959903;28;62211;-73
2022/05/14 01:22:05;;;;;;;;;3.67;2.33;;;;;18.43;78.29;101936.56;4959778;28;45389;-73
2022/05/14 01:27:33;;;;;;;;;5.33;2.67;;;;;18.34;78.85;101932.16;4978475;28;45210;-73
2022/05/14 01:29:59;;;;;;;;;6.00;3.67;;;;;18.30;79.49;101931.28;4965834;28;61546;-73
2022/05/14 01:32:24;;;;;;;;;6.00;3.67;;;;;18.29;79.61;101926.84;4962983;28;45472;-74
2022/05/14 01:34:50;;;;;;;;;5.33;3.00;;;;;18.24;79.72;101928.63;4973928;28;45421;-73
2022/05/14 01:37:15;;;;;;;;;4.00;3.33;;;;;18.20;79.93;101924.19;4974376;28;45221;-73
2022/05/14 01:39:41;;;;;;;;;5.33;4.00;;;;;18.17;80.22;101937.56;4966107;28;45597;-73
2022/05/14 01:42:07;;;;;;;;;5.00;4.00;;;;;18.15;80.21;101931.31;4971826;28;58154;-73
2022/05/14 01:44:33;;;;;;;;;3.33;3.33;;;;;18.12;80.55;101925.13;4978768;28;45380;-74
2022/05/14 01:46:58;;;;;;;;;3.67;3.00;;;;;18.10;80.66;101922.41;4979053;28;45405;-74
2022/05/14 01:49:24;;;;;;;;;3.00;3.00;;;;;18.05;81.02;101925.09;4967975;28;46099;-73
2022/05/14 01:51:49;;;;;;;;;4.00;4.00;;;;;18.01;80.86;101918.00;4963623;28;45443;-73
2022/05/14 01:54:14;;;;;;;;;4.33;4.00;;;;;17.99;81.35;101919.78;4978727;28;52534;-73
2022/05/14 01:56:40;;;;;;;;;4.33;3.00;;;;;17.98;82.19;101923.34;4978631;28;52887;-73
2022/05/14 01:59:05;;;;;;;;;4.00;3.00;;;;;17.85;81.91;101907.38;4977853;28;64762;-73
2022/05/14 02:01:33;;;;;;;;;6.67;5.00;;;;;17.92;81.98;101919.81;4961711;28;45477;-74
2022/05/14 02:04:11;;;;;;;;;4.67;4.00;;;;;17.85;82.37;101913.59;4978011;28;45311;-74
2022/05/14 02:06:37;;;;;;;;;3.00;3.00;;;;;17.85;82.54;101920.72;4979053;28;45412;-73
2022/05/14 02:09:05;;;;;;;;;5.33;4.00;;;;;17.82;83.10;101918.94;4978661;28;46182;-73
2022/05/14 02:11:30;;;;;;;;;4.00;4.00;;;;;17.80;83.25;101926.94;4977253;28;45434;-73
2022/05/14 02:13:55;;;;;;;;;6.00;4.33;;;;;17.73;83.84;101909.13;4965053;28;45414;-73
2022/05/14 02:16:21;;;;;;;;;5.00;5.00;;;;;17.72;84.03;101906.44;4959771;28;45354;-73
2022/05/14 02:18:47;;;;;;;;;8.00;6.33;;;;;17.70;84.53;101906.44;4959341;28;46652;-73
2022/05/14 02:21:13;;;;;;;;;7.00;5.00;;;;;17.70;84.78;101917.13;4964355;28;45483;-73
2022/05/14 02:23:39;;;;;;;;;8.67;5.00;;;;;17.69;84.78;101912.69;4963935;28;45168;-73
2022/05/14 02:26:06;;;;;;;;;5.00;5.00;;;;;17.65;85.17;101910.03;4966218;28;45370;-73
2022/05/14 02:28:32;;;;;;;;;10.67;6.67;;;;;17.63;85.26;101904.69;4964007;28;46486;-73
2022/05/14 02:30:57;;;;;;;;;6.00;5.67;;;;;17.64;86.31;101910.91;4959097;28;45499;-73
2022/05/14 02:33:23;;;;;;;;;7.00;7.00;;;;;17.63;86.43;101918.03;4963961;28;51530;-73
2022/05/14 02:35:48;;;;;;;;;9.00;5.67;;;;;17.56;86.19;101913.56;4978443;28;45294;-73
2022/05/14 02:38:15;;;;;;;;;5.00;5.00;;;;;17.55;86.87;101914.47;4978429;28;45540;-73
2022/05/14 02:40:41;;;;;;;;;6.00;6.00;;;;;17.52;87.19;101912.72;4978472;28;45315;-73
2022/05/14 02:43:06;;;;;;;;;8.67;7.00;;;;;17.48;87.59;101913.59;4976828;28;45459;-73
2022/05/14 02:45:32;;;;;;;;;5.00;5.00;;;;;17.44;87.55;101906.47;4958814;28;45345;-72
2022/05/14 02:47:57;;;;;;;;;6.33;5.00;;;;;17.41;87.86;101919.78;4971400;28;46594;-73
2022/05/14 02:50:22;;;;;;;;;7.00;6.00;;;;;17.43;88.00;101919.81;4976442;28;57456;-74
2022/05/14 02:52:48;;;;;;;;;7.33;6.00;;;;;17.41;89.13;101932.25;4978343;28;45506;-73
2022/05/14 02:55:13;;;;;;;;;7.67;6.00;;;;;17.40;88.43;101922.47;4958341;28;55783;-73
2022/05/14 02:57:39;;;;;;;;;5.67;5.67;;;;;17.39;89.00;101926.03;4959655;28;45610;-73
2022/05/14 03:00:07;;;;;;;;;7.67;6.00;;;;;17.40;88.84;101931.38;4973790;28;45328;-73
2022/05/14 03:02:32;;;;;;;;;6.33;5.00;;;;;17.40;89.40;101919.81;4977878;28;45358;-74
2022/05/14 03:04:57;;;;;;;;;5.00;5.00;;;;;17.39;89.21;101923.38;4976660;28;45595;-73
2022/05/14 03:07:23;;;;;;;;;6.00;6.00;;;;;17.32;89.78;101914.47;4977475;28;56672;-73
2022/05/14 03:09:48;;;;;;;;;6.00;6.00;;;;;17.37;90.14;101917.16;4977693;28;45506;-73
2022/05/14 03:12:14;;;;;;;;;7.00;6.00;;;;;17.36;89.92;101916.22;4977123;28;53717;-73
2022/05/14 03:14:40;;;;;;;;;8.00;6.67;;;;;17.35;90.37;101922.47;4958574;28;45304;-73
2022/05/14 03:17:06;;;;;;;;;5.00;5.00;;;;;17.38;90.96;101925.16;4956982;28;45552;-73
2022/05/14 03:19:31;;;;;;;;;5.33;5.33;;;;;17.35;90.67;101925.13;4958038;28;45459;-73
2022/05/14 03:21:57;;;;;;;;;6.00;5.00;;;;;17.33;91.14;101908.25;4966561;28;45211;-73
2022/05/14 03:24:23;;;;;;;;;6.67;6.67;;;;;17.31;91.31;101914.47;4958420;28;45199;-73
2022/05/14 03:26:49;;;;;;;;;7.00;5.00;;;;;17.32;91.45;101926.94;4970730;28;45514;-73
2022/05/14 03:29:14;;;;;;;;;7.00;6.00;;;;;17.29;91.45;101935.81;4976994;28;61453;-73
2022/05/14 03:31:40;;;;;;;;;7.00;7.00;;;;;17.27;91.50;101924.25;4976611;28;45324;-73
2022/05/14 03:34:07;;;;;;;;;6.00;6.00;;;;;17.25;91.93;101928.69;4967706;28;45357;-73
2022/05/14 03:36:33;;;;;;;;;6.33;6.33;;;;;17.23;92.28;101923.34;4977854;28;47591;-73
2022/05/14 03:38:58;;;;;;;;;10.00;7.00;;;;;17.24;92.22;101926.91;4977691;28;45365;-73
2022/05/14 03:41:24;;;;;;;;;7.67;5.33;;;;;17.23;92.18;101926.03;4976393;28;45411;-74
2022/05/14 03:43:49;;;;;;;;;7.00;6.00;;;;;17.21;92.03;101925.16;4971456;28;45356;-73
2022/05/14 03:46:15;;;;;;;;;7.33;6.67;;;;;17.21;92.37;101927.81;4976663;28;60931;-73
2022/05/14 03:48:41;;;;;;;;;6.33;5.33;;;;;17.18;92.63;101925.13;4971374;28;45335;-73
2022/05/14 03:51:07;;;;;;;;;11.33;6.00;;;;;17.15;92.68;101921.56;4958030;28;45214;-73
2022/05/14 03:53:32;;;;;;;;;6.33;6.33;;;;;17.14;92.89;101926.00;4958339;28;45204;-73
2022/05/14 03:55:58;;;;;;;;;9.00;7.33;;;;;17.12;93.10;101916.22;4957780;28;46486;-73
2022/05/14 03:58:24;;;;;;;;;7.00;7.00;;;;;17.05;93.24;101906.44;4964366;28;58710;-73
2022/05/14 04:00:49;;;;;;;;;9.00;6.67;;;;;17.05;93.82;101915.34;4975072;28;45317;-73
2022/05/14 04:03:15;;;;;;;;;7.00;6.00;;;;;17.05;93.75;101920.69;4975731;28;45461;-73
2022/05/14 04:05:41;;;;;;;;;8.67;5.67;;;;;17.06;94.10;101914.44;4977033;28;46541;-73
2022/05/14 04:08:06;;;;;;;;;8.67;5.67;;;;;17.04;94.02;101916.19;4977142;28;45423;-74
2022/05/14 04:10:32;;;;;;;;;7.67;7.00;;;;;17.02;94.06;101915.31;4977402;28;45373;-73
2022/05/14 04:12:58;;;;;;;;;9.67;7.00;;;;;16.98;94.64;101921.53;4976993;28;45348;-73
2022/05/14 04:15:24;;;;;;;;;9.00;7.00;;;;;16.96;95.01;101917.97;4965187;28;46763;-74
2022/05/14 04:17:53;;;;;;;;;8.67;6.00;;;;;16.93;94.96;101923.31;4956905;28;45343;-73
2022/05/14 04:20:19;;;;;;;;;8.00;7.00;;;;;16.90;95.62;101924.19;4957486;28;45379;-74
2022/05/14 04:22:44;;;;;;;;;8.33;7.00;;;;;16.91;95.99;101925.97;4961930;28;45651;-73
2022/05/14 04:25:11;;;;;;;;;8.00;7.67;;;;;16.91;95.67;101925.09;4957243;28;52947;-74
2022/05/14 04:27:37;;;;;;;;;9.00;7.67;;;;;16.87;95.95;101925.97;4976424;28;45674;-73
2022/05/14 04:30:03;;;;;;;;;7.00;5.67;;;;;16.90;96.34;101928.66;4963779;28;45533;-73
2022/05/14 04:32:28;;;;;;;;;11.00;7.00;;;;;16.84;96.45;101918.84;4960163;28;45579;-73
2022/05/14 04:34:55;;;;;;;;;6.00;6.00;;;;;16.88;96.52;101933.06;4973978;28;54686;-74
2022/05/14 04:37:20;;;;;;;;;7.00;7.00;;;;;16.84;96.85;101924.19;4980149;28;45417;-74
2022/05/14 04:39:46;;;;;;;;;7.00;7.00;;;;;16.85;97.14;101931.31;4979720;28;54069;-73
2022/05/14 04:42:11;;;;;;;;;8.00;7.33;;;;;16.83;97.52;101929.50;4979656;28;52155;-73
2022/05/14 04:44:37;;;;;;;;;11.33;8.67;;;;;16.85;97.89;101930.41;4965405;28;60627;-74
2022/05/14 04:47:03;;;;;;;;;12.00;7.00;;;;;16.85;98.11;101941.09;4965939;28;45413;-74
2022/05/14 04:49:29;;;;;;;;;12.67;9.00;;;;;16.84;97.85;101932.19;4978929;28;45396;-73
2022/05/14 04:51:54;;;;;;;;;8.00;8.00;;;;;16.83;98.23;101940.16;4977908;28;52160;-74
2022/05/14 04:54:20;;;;;;;;;10.00;6.67;;;;;16.83;99.03;101935.75;4967765;28;47412;-73
2022/05/14 04:56:45;;;;;;;;;7.00;7.00;;;;;16.85;98.35;101933.97;4960220;28;45425;-74
2022/05/14 04:59:11;;;;;;;;;11.00;6.67;;;;;16.88;98.68;101938.41;4974116;28;45151;-74
2022/05/14 05:01:36;;;;;;;;;7.00;7.00;;;;;16.89;98.95;101940.22;4961910;28;46264;-73
2022/05/14 05:04:02;;;;;;;;;14.00;9.00;;;;;16.90;98.94;101939.31;4977682;28;61280;-73
2022/05/14 05:06:28;;;;;;;;;10.33;7.33;;;;;16.88;99.15;101927.72;4979820;28;45377;-74
2022/05/14 05:08:54;;;;;;;;;9.33;7.00;;;;;16.93;98.98;101940.19;4979778;28;45317;-73
2022/05/14 05:11:20;;;;;;;;;11.00;9.00;;;;;16.95;99.54;101932.22;4972966;28;53712;-73
2022/05/14 05:13:46;;;;;;;;;9.00;9.00;;;;;16.92;99.75;101926.88;4966598;28;45986;-73
2022/05/14 05:16:11;;;;;;;;;9.00;9.00;;;;;16.98;99.87;101941.09;4960195;28;45310;-73
2022/05/14 05:18:37;;;;;;;;;12.33;9.00;;;;;16.96;99.61;101931.31;4959872;28;53760;-73
2022/05/14 05:21:03;;;;;;;;;14.00;11.00;;;;;17.02;99.79;101934.88;4960729;28;45457;-73
2022/05/14 05:23:29;;;;;;;;;10.67;10.00;;;;;17.03;100.00;101947.34;4963206;28;46317;-73
2022/05/14 05:25:56;;;;;;;;;14.67;10.00;;;;;17.06;100.00;101943.81;4965522;28;45499;-73
2022/05/14 05:28:22;;;;;;;;;14.00;10.00;;;;;17.06;100.00;101932.25;5110756;23;45520;-73
2022/05/14 05:30:48;;;;;;;;;11.33;10.00;;;;;17.09;100.00;101943.78;4989963;28;45553;-73
2022/05/14 05:33:16;;;;;;;;;14.33;11.00;;;;;17.17;100.00;101954.50;4996853;28;46668;-73
2022/05/14 05:35:42;;;;;;;;;11.67;11.00;;;;;17.18;100.00;101945.59;4980329;28;45289;-73
2022/05/14 05:38:07;;;;;;;;;15.00;9.67;;;;;17.15;100.00;101926.91;4982366;28;56015;-73
2022/05/14 05:40:33;;;;;;;;;11.67;11.00;;;;;17.19;99.85;101937.59;4999282;28;45586;-74
2022/05/14 05:42:59;;;;;;;;;11.00;10.67;;;;;17.25;99.76;101944.69;4998236;28;46006;-74
2022/05/14 05:45:24;;;;;;;;;11.67;8.67;;;;;17.28;99.73;101945.63;4998590;28;45475;-73
2022/05/14 05:47:50;;;;;;;;;11.00;10.00;;;;;17.27;100.00;101941.16;4997795;28;45362;-73
2022/05/14 05:50:15;;;;;;;;;14.33;10.00;;;;;17.31;99.84;101944.75;4980321;28;49090;-73
2022/05/14 05:52:41;;;;;;;;;10.33;9.00;;;;;17.38;99.67;101950.97;4988096;28;45298;-73
2022/05/14 05:57:51;;;;;;;;;12.00;9.00;;;;;17.45;99.28;101950.97;4997582;28;45363;-73
2022/05/14 06:00:22;;;;;;;;;10.00;9.00;;;;;17.49;98.75;101959.88;4999116;28;45196;-73
2022/05/14 06:02:47;;;;;;;;;12.67;10.00;;;;;17.48;98.39;101942.97;4997781;28;46241;-73
2022/05/14 06:05:14;;;;;;;;;10.33;8.00;;;;;17.54;98.33;101955.44;4989567;28;49244;-74
2022/05/14 06:07:39;;;;;;;;;8.67;6.00;;;;;17.59;97.84;101961.66;4998751;28;45740;-73
2022/05/14 06:10:07;;;;;;;;;7.00;7.00;;;;;17.62;97.12;101960.75;4997678;28;45340;-73
2022/05/14 06:12:34;;;;;;;;;6.67;5.33;;;;;17.62;96.54;101958.09;4993162;28;46759;-74
2022/05/14 06:15:00;;;;;;;;;4.00;4.00;;;;;17.68;96.37;101958.06;4992995;28;45352;-74
2022/05/14 06:17:25;;;;;;;;;7.33;5.00;;;;;17.67;95.70;101954.53;4990750;28;45547;-74
2022/05/14 06:19:51;;;;;;;;;4.67;4.00;;;;;17.73;95.94;101954.53;4997517;28;45516;-75
2022/05/14 06:22:16;;;;;;;;;5.00;4.00;;;;;17.80;95.05;101969.69;4994268;28;45723;-74
2022/05/14 06:24:41;;;;;;;;;7.00;4.00;;;;;17.82;94.72;101959.00;4992627;28;45459;-73
2022/05/14 06:27:07;;;;;;;;;7.33;6.00;;;;;17.87;94.50;101961.69;4995361;28;53368;-73
2022/05/14 06:29:33;;;;;;;;;4.00;4.00;;;;;17.93;93.96;101961.66;4988233;28;54407;-74
2022/05/14 06:31:59;;;;;;;;;6.33;4.00;;;;;17.97;94.02;101964.34;4991825;28;46684;-73
2022/05/14 06:34:25;;;;;;;;;5.67;4.67;;;;;18.04;93.09;101966.09;4997697;28;45345;-74
2022/05/14 06:36:50;;;;;;;;;7.33;5.67;;;;;18.11;93.11;101968.75;4998183;28;45304;-73
2022/05/14 06:39:16;;;;;;;;;5.00;4.00;;;;;18.15;92.68;101974.09;4997006;28;45360;-74
2022/05/14 06:41:41;;;;;;;;;4.33;3.67;;;;;18.15;92.74;101970.53;4997065;28;45583;-73
2022/05/14 06:44:07;;;;;;;;;3.00;3.00;;;;;18.18;92.44;101962.53;4994591;28;45534;-74
2022/05/14 06:46:35;;;;;;;;;4.00;4.00;;;;;18.24;91.69;101965.16;4994239;28;45745;-75
2022/05/14 06:49:01;;;;;;;;;3.67;3.00;;;;;18.28;91.34;101966.94;4988841;28;45580;-74
2022/05/14 06:51:27;;;;;;;;;3.00;3.00;;;;;18.28;90.98;101962.50;4990440;28;45931;-73
2022/05/14 06:53:55;;;;;;;;;4.00;3.00;;;;;18.35;90.21;101973.16;4986571;28;45996;-75
2022/05/14 06:56:21;;;;;;;;;3.00;3.00;;;;;18.34;89.91;101956.22;4991470;28;45453;-75
2022/05/14 06:58:49;;;;;;;;;4.00;2.67;;;;;18.39;89.57;101970.47;4992867;28;45345;-74
2022/05/14 07:01:15;;;;;;;;;5.00;3.67;;;;;18.39;89.05;101965.13;4991116;28;45806;-74
2022/05/14 07:06:40;;;;;;;;;4.33;3.00;;;;;18.45;89.19;101965.09;4995707;28;45621;-75
2022/05/14 07:09:10;;;;;;;;;5.00;4.00;;;;;18.52;88.79;101974.00;4990471;28;45536;-73
2022/05/14 07:11:37;;;;;;;;;4.33;4.00;;;;;18.51;88.59;101965.09;5011500;28;46564;-74
2022/05/14 07:14:03;;;;;;;;;3.00;3.00;;;;;18.59;88.35;101973.97;4986418;28;45522;-74
2022/05/14 07:16:28;;;;;;;;;6.33;4.00;;;;;18.61;87.47;101968.63;4989949;28;45444;-72
2022/05/14 07:18:54;;;;;;;;;7.00;4.00;;;;;18.62;88.04;101966.81;4996113;28;45494;-69
2022/05/14 07:21:19;;;;;;;;;24.33;14.67;;;;;18.64;88.47;101965.03;4983356;28;45981;-69
2022/05/14 07:23:45;;;;;;;;;8.00;4.00;;;;;18.62;90.00;101961.47;4983815;28;57409;-70
2022/05/14 07:26:10;;;;;;;;;6.00;4.00;;;;;18.58;88.25;101958.81;4992529;28;55498;-70
2022/05/14 07:28:36;;;;;;;;;6.67;5.00;;;;;18.52;88.90;101949.91;4984630;28;45594;-69
2022/05/14 07:31:02;;;;;;;;;7.00;6.00;;;;;18.55;87.77;101955.28;4980732;28;46161;-69
2022/05/14 07:33:28;;;;;;;;;10.00;5.00;;;;;18.48;87.58;101950.81;4994553;28;45511;-69
2022/05/14 07:35:55;;;;;;;;;5.00;5.00;;;;;18.42;87.71;101958.88;4989535;28;45425;-69
2022/05/14 07:38:21;;;;;;;;;9.00;6.67;;;;;18.45;87.40;101954.41;4975193;28;45267;-69
2022/05/14 07:40:46;;;;;;;;;8.00;6.00;;;;;18.37;88.35;101941.94;5005270;28;61216;-70
2022/05/14 07:43:19;;;;;;;;;9.00;6.33;;;;;18.41;88.30;101947.28;4977343;28;45558;-69
2022/05/14 07:45:46;;;;;;;;;12.00;6.67;;;;;18.45;88.88;101943.72;4978975;28;45749;-68
2022/05/14 07:48:20;;;;;;;;;10.00;6.00;;;;;18.54;88.60;101945.47;4984619;28;45675;-69
2022/05/14 07:50:46;;;;;;;;;6.67;6.67;;;;;18.59;88.77;101946.34;4987289;28;45779;-68
2022/05/14 07:53:13;;;;;;;;;10.00;7.00;;;;;18.67;89.73;101947.19;4987839;28;45584;-68
2022/05/14 07:55:38;;;;;;;;;6.00;6.00;;;;;18.74;89.69;101946.28;4982635;28;45517;-69
2022/05/14 07:58:04;;;;;;;;;5.00;5.00;;;;;18.84;88.65;101944.44;4981743;28;46989;-69
2022/05/14 08:00:30;;;;;;;;;5.67;5.67;;;;;18.88;88.01;101940.88;4992370;28;46814;-70
2022/05/14 08:02:55;;;;;;;;;7.00;6.00;;;;;18.93;87.26;101947.09;4993657;28;45459;-68
2022/05/14 08:05:21;;;;;;;;;11.00;8.00;;;;;18.95;87.32;101939.03;4980432;28;46833;-68
2022/05/14 08:07:47;;;;;;;;;9.00;4.33;;;;;19.00;88.13;101945.25;4983323;28;46437;-74
2022/05/14 08:10:16;;;;;;;;;7.00;5.00;;;;;19.05;87.17;101943.44;4982798;28;45758;-68
2022/05/14 08:12:43;;;;;;;;;7.00;3.33;;;;;19.15;87.37;101936.25;4995323;28;45479;-67
2022/05/14 08:15:12;;;;;;;;;8.33;5.67;;;;;19.20;87.03;101931.75;4998024;28;45620;-68
2022/05/14 08:17:37;;;;;;;;;7.00;3.33;;;;;19.26;86.63;101934.38;4993937;28;45531;-71
2022/05/14 08:20:04;;;;;;;;;6.00;3.00;;;;;19.29;85.11;101935.25;4994535;28;46161;-68
2022/05/14 08:25:13;;;;;;;;;3.67;3.33;;;;;19.44;85.34;101944.06;4988798;28;45535;-69
2022/05/14 08:27:44;;;;;;;;;4.33;3.00;;;;;19.47;84.90;101941.38;4987325;28;45646;-68
2022/05/14 08:30:18;;;;;;;;;5.00;3.00;;;;;19.52;84.77;101934.19;4988411;28;46664;-69
2022/05/14 08:32:43;;;;;;;;;4.00;4.00;;;;;19.59;84.54;101939.50;4987391;28;45708;-68
2022/05/14 08:35:10;;;;;;;;;7.67;3.33;;;;;19.64;85.25;101942.13;4993868;28;49146;-68
2022/05/14 08:37:36;;;;;;;;;3.67;2.33;;;;;19.66;84.72;101928.75;4996724;28;45573;-68
2022/05/14 08:40:10;;;;;;;;;7.00;3.00;;;;;19.74;84.49;101941.16;4992062;28;46315;-68
2022/05/14 08:42:37;;;;;;;;;7.33;5.33;;;;;19.80;83.94;101937.53;4993806;28;45572;-68
2022/05/14 08:45:03;;;;;;;;;11.00;4.33;;;;;19.79;82.24;101931.28;5002272;28;45462;-69
2022/05/14 08:47:35;;;;;;;;;5.33;3.67;;;;;19.78;82.99;101933.97;4993009;28;45568;-68
2022/05/14 08:50:03;;;;;;;;;9.33;4.67;;;;;19.81;82.27;101934.81;4991476;28;46675;-68
2022/05/14 08:52:29;;;;;;;;;3.00;3.00;;;;;19.84;82.84;101924.09;4994470;28;45447;-68
2022/05/14 08:55:01;;;;;;;;;5.67;3.67;;;;;19.96;82.04;101924.84;4992126;28;45496;-68
2022/05/14 08:57:49;;;;;;;;;5.00;3.67;;;;;19.99;82.81;101916.81;4995517;28;45559;-68
2022/05/14 09:00:16;;;;;;;;;6.67;5.67;;;;;20.08;82.03;101919.34;5006277;28;46064;-67
2022/05/14 09:02:48;;;;;;;;;5.33;4.00;;;;;20.11;81.38;101919.34;4998742;28;45896;-68
2022/05/14 09:05:23;;;;;;;;;4.00;4.00;;;;;20.18;81.49;101920.16;4997220;28;45443;-69
2022/05/14 09:07:52;;;;;;;;;5.33;4.00;;;;;20.23;79.32;101920.97;4999111;28;45464;-68
2022/05/14 09:10:26;;;;;;;;;4.33;4.33;;;;;20.27;81.35;101922.72;4998514;28;47873;-68
2022/05/14 09:12:58;;;;;;;;;6.00;4.00;;;;;20.27;79.03;101917.38;4998582;28;45538;-67
2022/05/14 09:15:29;;;;;;;;;3.00;3.00;;;;;20.22;79.46;101916.53;4998280;28;45372;-68
2022/05/14 09:18:13;;;;;;;;;5.33;3.00;;;;;20.23;79.69;101916.50;4998183;28;45354;-68
2022/05/14 09:20:46;;;;;;;;;4.00;2.00;;;;;20.27;79.31;101920.06;4994253;28;45443;-68
2022/05/14 09:23:23;;;;;;;;;3.33;3.33;;;;;20.27;79.35;101910.22;4992819;28;45595;-68
2022/05/14 09:25:49;;;;;;;;;2.33;2.33;;;;;20.34;79.00;101905.66;4998454;28;45580;-68
2022/05/14 09:28:29;;;;;;;;;4.00;2.00;;;;;20.37;80.14;101914.56;4992329;28;53045;-68
2022/05/14 09:30:57;;;;;;;;;4.00;4.00;;;;;20.44;77.58;101909.09;4990893;28;46913;-67
2022/05/14 09:33:28;;;;;;;;;8.67;7.00;;;;;20.46;79.50;101905.56;4986665;28;45894;-69
2022/05/14 09:35:58;;;;;;;;;3.00;2.33;;;;;20.51;82.07;101906.38;4995666;28;45518;-69
2022/05/14 09:38:25;;;;;;;;;3.00;2.00;;;;;20.63;79.80;101899.97;4998942;28;45535;-69
2022/05/14 09:40:52;;;;;;;;;2.33;2.00;;;;;20.75;79.59;101904.25;4990582;28;47304;-71
2022/05/14 09:43:17;;;;;;;;;4.00;3.00;;;;;20.85;78.05;101906.78;4993561;28;45297;-69
2022/05/14 09:46:00;;;;;;;;;2.00;2.00;;;;;20.95;78.45;101899.50;4980590;28;45440;-68
2022/05/14 09:48:47;;;;;;;;;6.00;3.00;;;;;21.03;77.98;101889.50;4984461;28;46553;-70
2022/05/14 09:51:25;;;;;;;;;1.00;1.00;;;;;21.12;76.98;101883.13;4984013;28;46448;-69
2022/05/14 09:53:52;;;;;;;;;2.00;2.00;;;;;21.20;72.96;101881.22;4979342;28;45652;-68
2022/05/14 09:56:25;;;;;;;;;1.00;1.00;;;;;21.24;74.87;101882.91;4988430;28;45879;-69
2022/05/14 09:59:20;;;;;;;;;2.67;2.67;;;;;21.28;74.08;101870.31;4988553;28;45368;-69
2022/05/14 10:01:51;;;;;;;;;3.00;1.00;;;;;21.32;73.84;101862.22;4987076;28;47742;-70
2022/05/14 10:04:29;;;;;;;;;2.00;2.00;;;;;21.40;73.83;101870.13;4987846;28;45595;-68
2022/05/14 10:07:04;;;;;;;;;2.33;2.00;;;;;21.50;75.65;101876.25;4997480;28;45353;-71
2022/05/14 10:10:09;;;;;;;;;3.00;3.00;;;;;21.55;71.73;101867.19;4998584;28;45386;-69
2022/05/14 10:12:39;;;;;;;;;2.00;2.00;;;;;21.62;73.71;101859.91;4981827;28;45504;-70
2022/05/14 10:15:15;;;;;;;;;10.67;5.00;;;;;21.65;68.99;101866.09;4988579;28;45415;-68
2022/05/14 10:17:47;;;;;;;;;6.00;3.00;;;;;21.67;68.35;101864.28;4996360;28;45456;-69
2022/05/14 10:20:36;;;;;;;;;3.00;2.00;;;;;21.67;69.01;101864.28;4997445;28;45524;-68
2022/05/14 10:29:14;;;;;;;;;5.00;3.00;;;;;21.76;69.36;101860.53;4980445;28;45515;-69
2022/05/14 10:31:59;;;;;;;;;4.00;4.00;;;;;21.80;70.26;101862.25;4988459;28;45521;-68
2022/05/14 10:34:52;;;;;;;;;2.67;2.67;;;;;21.86;68.53;101856.75;4984179;28;47352;-68
2022/05/14 10:37:29;;;;;;;;;5.00;4.00;;;;;21.93;67.85;101852.13;4962329;28;45554;-71
2022/05/14 10:40:07;;;;;;;;;5.00;3.00;;;;;22.00;69.29;101844.81;4984893;28;45485;-71
2022/05/14 10:42:56;;;;;;;;;2.00;2.00;;;;;22.07;70.74;101851.88;4995740;28;45394;-69
2022/05/14 10:45:41;;;;;;;;;10.33;7.33;;;;;22.07;71.02;101831.22;4987669;28;47240;-68
2022/05/14 10:48:30;;;;;;;;;3.67;2.67;;;;;22.25;72.32;101843.44;4995595;28;45317;-69
2022/05/14 10:50:55;;;;;;;;;6.00;4.67;;;;;22.28;70.96;101838.00;4991030;28;45502;-70
2022/05/14 10:53:21;;;;;;;;;4.00;3.00;;;;;22.38;72.45;101839.56;4990694;28;45520;-69
2022/05/14 10:55:58;;;;;;;;;3.67;2.00;;;;;22.47;70.46;101839.34;4991215;28;55665;-69
2022/05/14 10:58:39;;;;;;;;;2.00;2.00;;;;;22.51;69.68;101832.09;4994278;28;45559;-69
2022/05/14 11:01:06;;;;;;;;;5.33;3.00;;;;;22.60;70.02;101831.03;4997015;28;45478;-69
2022/05/14 11:03:36;;;;;;;;;5.00;3.33;;;;;22.69;70.33;101833.47;4984190;28;45350;-68
2022/05/14 11:06:01;;;;;;;;;3.00;3.00;;;;;22.76;66.92;101835.13;4983745;28;46598;-68
2022/05/14 11:08:32;;;;;;;;;6.00;4.33;;;;;22.80;68.14;101831.44;4996745;28;45348;-69
2022/05/14 11:11:25;;;;;;;;;6.67;3.00;;;;;22.81;67.14;101822.44;4986044;28;45506;-71
2022/05/14 11:14:06;;;;;;;;;5.00;2.00;;;;;22.90;67.71;101818.66;4978179;28;45464;-68
2022/05/14 11:16:51;;;;;;;;;5.67;3.67;;;;;22.96;63.97;101827.50;4982772;28;46572;-70
2022/05/14 11:19:30;;;;;;;;;8.00;5.33;;;;;23.02;66.90;101817.50;4997406;28;45206;-69
2022/05/14 11:21:56;;;;;;;;;4.67;3.67;;;;;23.05;66.56;101815.59;4992071;28;45626;-72
2022/05/14 11:24:38;;;;;;;;;3.00;3.00;;;;;23.11;66.13;101806.47;4983563;28;45404;-69
2022/05/14 11:27:04;;;;;;;;;7.00;4.00;;;;;23.13;65.37;101812.72;4993004;28;46438;-70
2022/05/14 11:29:35;;;;;;;;;3.00;3.00;;;;;23.18;66.50;101805.41;4994301;28;45262;-70
2022/05/14 11:32:12;;;;;;;;;8.00;5.00;;;;;23.23;65.31;101790.88;4985763;28;45433;-70
2022/05/14 11:34:50;;;;;;;;;3.67;3.00;;;;;23.33;65.37;101804.09;4982565;28;45440;-68
2022/05/14 11:37:27;;;;;;;;;5.00;4.00;;;;;23.36;65.21;101793.25;4990019;28;47562;-70
2022/05/14 11:40:23;;;;;;;;;4.00;4.00;;;;;23.50;63.15;101799.16;4995420;28;45494;-69
2022/05/14 11:42:53;;;;;;;;;7.00;3.33;;;;;23.58;63.45;101794.41;4975179;28;45561;-69
2022/05/14 11:45:18;;;;;;;;;5.00;4.00;;;;;23.69;65.96;101797.72;4994221;28;45682;-69
2022/05/14 11:47:56;;;;;;;;;3.67;3.00;;;;;23.79;65.21;101810.03;4995776;28;46290;-70
2022/05/14 11:50:27;;;;;;;;;12.00;8.33;;;;;23.88;64.38;101791.81;4995891;28;45285;-70